Time;durP1;ratioP1;P1;durP2;ratioP2;P2;SDS_P1;SDS_P2;PMS_P1;PMS_P2;Temp;Humidity;BMP_temperature;BMP_pressure;BME280_temperature;BME280_humidity;BME280_pressure;Samples;Min_cycle;Max_cycle;Signal;HPM_P1;HPM_P2
2023/04/21 00:02:26;;;;;;;27.25;18.80;;;7.70;99.90;;;;;;5036729;28;20045;-46
2023/04/21 00:04:52;;;;;;;27.77;18.05;;;7.70;99.90;;;;;;5039064;28;20037;-47
2023/04/21 00:07:19;;;;;;;27.75;18.40;;;8.80;99.90;;;;;;5029133;28;20084;-48
2023/04/21 00:09:45;;;;;;;29.17;17.63;;;7.70;99.90;;;;;;5032116;28;20045;-45
2023/04/21 00:12:11;;;;;;;27.02;17.52;;;7.70;99.90;;;;;;5016640;28;20083;-45
2023/04/21 00:14:38;;;;;;;28.00;16.70;;;8.40;99.90;;;;;;5031248;28;20454;-48
2023/04/21 00:17:04;;;;;;;27.95;16.80;;;7.60;99.90;;;;;;5037053;28;20395;-46
2023/04/21 00:19:30;;;;;;;24.85;16.05;;;8.60;99.90;;;;;;5035361;28;20041;-45
2023/04/21 00:21:58;;;;;;;21.52;15.30;;;7.50;99.90;;;;;;5029725;28;20493;-46
2023/04/21 00:24:26;;;;;;;25.58;16.38;;;7.50;99.90;;;;;;5042039;28;20045;-48
2023/04/21 00:26:52;;;;;;;23.00;16.00;;;7.40;99.90;;;;;;5025671;28;20041;-46
2023/04/21 00:29:18;;;;;;;20.67;15.52;;;7.60;99.90;;;;;;5033913;28;20048;-45
2023/04/21 00:31:43;;;;;;;23.08;15.40;;;7.70;99.90;;;;;;5028032;28;20048;-45
2023/04/21 00:34:09;;;;;;;23.17;14.82;;;8.20;99.90;;;;;;5032805;28;20160;-45
2023/04/21 00:36:35;;;;;;;20.48;15.75;;;7.40;99.90;;;;;;5034382;28;20038;-47
2023/04/21 00:39:01;;;;;;;23.45;14.68;;;7.40;99.90;;;;;;4998545;28;20033;-46
2023/04/21 00:41:28;;;;;;;21.55;14.90;;;7.30;99.90;;;;;;5016282;28;20033;-46
2023/04/21 00:44:04;;;;;;;21.75;14.57;;;7.30;99.90;;;;;;5032667;28;20142;-46
2023/04/21 00:46:30;;;;;;;22.40;14.88;;;7.20;99.90;;;;;;5009444;28;20477;-47
2023/04/21 00:48:57;;;;;;;21.08;13.98;;;7.20;99.90;;;;;;5029397;28;20045;-46
2023/04/21 00:51:24;;;;;;;22.45;15.45;;;7.20;99.90;;;;;;5040465;28;20610;-45
2023/04/21 00:53:50;;;;;;;24.40;15.10;;;8.10;99.90;;;;;;5030529;28;20088;-46
2023/04/21 00:56:17;;;;;;;20.58;14.63;;;7.20;99.90;;;;;;5035802;28;20069;-46
2023/04/21 00:58:44;;;;;;;21.13;14.18;;;7.20;99.90;;;;;;5034603;28;20041;-46
2023/04/21 01:01:12;;;;;;;21.88;15.45;;;7.10;99.90;;;;;;5009674;28;20048;-47
2023/04/21 01:03:37;;;;;;;20.45;13.68;;;7.70;99.90;;;;;;5013536;28;20095;-46
2023/04/21 01:06:03;;;;;;;21.92;14.77;;;7.70;99.90;;;;;;5024276;28;20047;-46
2023/04/21 01:08:30;;;;;;;20.45;14.18;;;7.10;99.90;;;;;;5032027;28;20123;-46
2023/04/21 01:10:55;;;;;;;19.92;14.23;;;4.90;99.90;;;;;;5028506;28;20054;-47
2023/04/21 01:13:21;;;;;;;22.90;14.88;;;7.10;99.90;;;;;;5034404;28;20041;-46
2023/04/21 01:15:48;;;;;;;25.90;14.77;;;7.10;99.90;;;;;;5040209;28;20037;-45
2023/04/21 01:18:13;;;;;;;20.45;14.80;;;7.20;99.90;;;;;;5017561;28;20534;-44
2023/04/21 01:20:39;;;;;;;21.85;14.40;;;7.10;99.90;;;;;;5039240;28;20033;-47
2023/04/21 01:23:06;;;;;;;25.52;15.13;;;7.10;99.90;;;;;;5034484;28;20033;-45
2023/04/21 01:25:32;;;;;;;24.88;14.68;;;8.30;99.90;;;;;;5037797;28;20428;-45
2023/04/21 01:27:58;;;;;;;19.58;13.88;;;7.10;99.90;;;;;;5036363;28;20052;-45
2023/04/21 01:30:24;;;;;;;25.95;15.27;;;7.00;99.90;;;;;;5030879;28;20037;-45
2023/04/21 01:32:49;;;;;;;23.27;15.65;;;7.00;99.90;;;;;;5029738;28;20040;-46
2023/04/21 01:35:15;;;;;;;24.83;16.35;;;7.80;99.90;;;;;;5037243;28;20471;-46
2023/04/21 01:37:41;;;;;;;23.02;15.02;;;7.00;99.90;;;;;;5031452;28;20047;-45
2023/04/21 01:40:08;;;;;;;21.25;13.70;;;7.40;99.90;;;;;;5022133;28;20055;-45
2023/04/21 01:42:37;;;;;;;21.55;13.93;;;7.00;99.90;;;;;;5039738;28;20487;-46
2023/04/21 01:45:03;;;;;;;22.15;13.43;;;7.80;99.90;;;;;;5033358;28;20080;-45
2023/04/21 01:47:29;;;;;;;17.98;13.32;;;6.90;99.90;;;;;;5032765;28;20731;-45
2023/04/21 01:49:55;;;;;;;24.90;14.20;;;6.90;99.90;;;;;;5037254;28;20057;-45
2023/04/21 01:52:20;;;;;;;22.63;14.38;;;6.90;99.90;;;;;;5036573;28;20041;-46
2023/04/21 01:54:46;;;;;;;20.15;14.40;;;6.90;99.90;;;;;;5035609;28;20053;-49
2023/04/21 01:57:12;;;;;;;22.48;14.55;;;6.80;99.90;;;;;;5031992;28;20052;-45
2023/04/21 01:59:38;;;;;;;21.75;13.98;;;6.80;99.90;;;;;;5037395;28;20049;-46
2023/04/21 02:02:03;;;;;;;19.92;14.27;;;6.80;99.90;;;;;;5018802;28;20037;-46
2023/04/21 02:04:29;;;;;;;20.75;13.55;;;6.80;99.90;;;;;;5033947;28;20076;-45
2023/04/21 02:06:55;;;;;;;21.88;14.50;;;7.30;99.90;;;;;;5027485;28;21289;-48
2023/04/21 02:09:21;;;;;;;21.73;13.70;;;6.70;99.90;;;;;;5038641;28;20037;-45
2023/04/21 02:11:46;;;;;;;22.73;15.15;;;6.70;99.90;;;;;;5035243;28;20041;-45
2023/04/21 02:14:12;;;;;;;21.50;14.18;;;6.70;99.90;;;;;;5032528;28;20106;-45
2023/04/21 02:16:39;;;;;;;24.25;15.65;;;7.70;99.90;;;;;;5035068;28;20168;-46
2023/04/21 02:19:05;;;;;;;27.38;15.00;;;7.70;99.90;;;;;;5028286;28;20046;-46
2023/04/21 02:21:31;;;;;;;20.13;13.98;;;7.70;99.90;;;;;;5034654;28;20049;-49
2023/04/21 02:23:57;;;;;;;18.08;13.35;;;6.70;99.90;;;;;;5010762;28;20395;-45
2023/04/21 02:26:22;;;;;;;18.70;13.45;;;6.70;99.90;;;;;;5032023;28;20026;-46
2023/04/21 02:28:49;;;;;;;21.00;13.73;;;6.70;99.90;;;;;;5041958;28;20730;-46
2023/04/21 02:31:15;;;;;;;19.70;13.43;;;6.70;99.90;;;;;;5037790;28;20159;-51
2023/04/21 02:33:41;;;;;;;20.33;13.57;;;6.70;99.90;;;;;;5021780;28;20832;-47
2023/04/21 02:36:07;;;;;;;22.55;13.38;;;7.70;99.90;;;;;;5039040;28;20128;-45
2023/04/21 02:38:33;;;;;;;20.60;14.00;;;6.70;99.90;;;;;;5037588;28;20534;-45
2023/04/21 02:40:58;;;;;;;21.88;13.63;;;6.70;99.90;;;;;;5033714;28;20045;-46
2023/04/21 02:43:24;;;;;;;22.30;14.13;;;6.70;99.90;;;;;;5019117;28;20812;-48
2023/04/21 02:45:50;;;;;;;24.38;14.30;;;7.20;99.90;;;;;;5035793;28;20717;-46
2023/04/21 02:48:21;;;;;;;20.70;13.38;;;6.80;99.90;;;;;;5029725;28;20115;-45
2023/04/21 02:50:48;;;;;;;22.92;14.63;;;7.60;99.90;;;;;;5031329;28;20061;-47
2023/04/21 02:53:14;;;;;;;23.02;14.18;;;6.50;99.90;;;;;;5034861;28;20041;-47
2023/04/21 02:55:39;;;;;;;19.85;14.10;;;6.60;99.90;;;;;;5029959;28;20765;-48
2023/04/21 02:58:06;;;;;;;25.55;14.88;;;6.50;99.90;;;;;;5028024;28;20045;-46
2023/04/21 03:00:31;;;;;;;24.45;14.93;;;6.50;99.90;;;;;;5031610;28;20068;-45
2023/04/21 03:02:57;;;;;;;26.30;15.02;;;7.10;99.90;;;;;;5026664;28;20514;-46
2023/04/21 03:05:23;;;;;;;23.25;15.27;;;6.50;99.90;;;;;;5030564;28;20041;-45
2023/04/21 03:07:49;;;;;;;21.13;15.90;;;6.50;99.90;;;;;;5038258;28;20153;-45
2023/04/21 03:10:15;;;;;;;25.45;15.82;;;6.50;99.90;;;;;;5027550;28;20057;-48
2023/04/21 03:12:41;;;;;;;24.02;15.43;;;7.20;99.90;;;;;;5029613;28;20041;-45
2023/04/21 03:15:07;;;;;;;21.77;15.68;;;6.50;99.90;;;;;;5034975;28;20029;-46
2023/04/21 03:17:33;;;;;;;25.58;15.65;;;6.40;99.90;;;;;;5008376;28;20041;-46
2023/04/21 03:19:58;;;;;;;23.55;16.15;;;6.50;99.90;;;;;;5031140;28;20132;-45
2023/04/21 03:22:24;;;;;;;26.52;17.20;;;6.60;99.90;;;;;;5031153;28;20064;-45
2023/04/21 03:24:50;;;;;;;25.80;16.55;;;6.30;99.90;;;;;;5034993;28;20045;-45
2023/04/21 03:27:16;;;;;;;24.55;15.38;;;6.30;99.90;;;;;;5036635;28;20041;-46
2023/04/21 03:29:41;;;;;;;24.85;15.27;;;6.30;99.90;;;;;;5037397;28;20047;-48
2023/04/21 03:32:07;;;;;;;28.15;17.10;;;6.30;99.90;;;;;;5030832;28;20171;-46
2023/04/21 03:34:33;;;;;;;26.95;15.60;;;6.30;99.90;;;;;;5029176;28;20044;-47
2023/04/21 03:36:59;;;;;;;25.52;16.70;;;6.30;99.90;;;;;;5014489;28;20042;-46
2023/04/21 03:39:24;;;;;;;29.55;17.67;;;6.30;99.90;;;;;;5011087;28;20283;-46
2023/04/21 03:41:50;;;;;;;24.92;16.77;;;6.30;99.90;;;;;;5032804;28;20060;-48
2023/04/21 03:44:16;;;;;;;22.58;15.50;;;7.00;99.90;;;;;;5033345;28;20884;-46
2023/04/21 03:46:41;;;;;;;25.35;16.70;;;6.20;99.90;;;;;;5027037;28;20026;-48
2023/04/21 03:49:07;;;;;;;28.95;16.88;;;7.00;99.90;;;;;;5032774;28;20055;-46
2023/04/21 03:51:33;;;;;;;25.67;16.75;;;6.20;99.90;;;;;;5037196;28;20041;-46
2023/04/21 03:53:58;;;;;;;25.45;16.88;;;6.20;99.90;;;;;;5036059;28;20037;-46
2023/04/21 03:56:24;;;;;;;23.73;16.08;;;7.10;99.90;;;;;;5026342;28;20044;-46
2023/04/21 03:58:50;;;;;;;25.00;16.73;;;6.80;99.90;;;;;;5029140;28;20048;-47
2023/04/21 04:01:15;;;;;;;23.77;15.98;;;6.20;99.90;;;;;;5033940;28;20049;-46
2023/04/21 04:03:41;;;;;;;26.27;16.67;;;6.30;99.90;;;;;;5033910;28;20128;-48
2023/04/21 04:06:07;;;;;;;22.40;15.80;;;6.30;99.90;;;;;;5026205;28;20034;-46
2023/04/21 04:08:32;;;;;;;24.10;16.77;;;6.30;99.90;;;;;;5033178;28;20125;-47
2023/04/21 04:10:58;;;;;;;24.30;15.40;;;6.30;99.90;;;;;;5031410;28;20045;-46
2023/04/21 04:13:25;;;;;;;22.15;15.57;;;6.30;99.90;;;;;;5014992;28;20460;-46
2023/04/21 04:15:51;;;;;;;26.08;16.00;;;6.30;99.90;;;;;;5035446;28;20700;-46
2023/04/21 04:18:17;;;;;;;27.67;16.23;;;6.30;99.90;;;;;;5024772;28;20095;-45
2023/04/21 04:20:42;;;;;;;26.40;16.73;;;6.40;99.90;;;;;;5036794;28;20768;-48
2023/04/21 04:23:08;;;;;;;24.63;15.27;;;6.40;99.90;;;;;;5029659;28;20038;-47
2023/04/21 04:25:34;;;;;;;21.77;14.88;;;8.90;99.90;;;;;;5040249;28;20140;-47
2023/04/21 04:27:59;;;;;;;21.60;15.30;;;6.40;99.90;;;;;;5029503;28;20045;-47
2023/04/21 04:30:28;;;;;;;28.88;15.27;;;7.30;99.90;;;;;;5033825;28;20049;-45
2023/04/21 04:32:54;;;;;;;20.05;14.32;;;7.20;99.90;;;;;;5026133;28;20045;-48
2023/04/21 04:35:20;;;;;;;22.17;15.65;;;6.50;99.90;;;;;;5024077;28;20049;-46
2023/04/21 04:37:45;;;;;;;20.23;14.00;;;7.10;99.90;;;;;;5027979;28;20095;-45
2023/04/21 04:40:11;;;;;;;22.00;14.38;;;6.60;99.90;;;;;;5030114;28;20068;-46
2023/04/21 04:42:38;;;;;;;21.92;14.50;;;6.70;99.90;;;;;;5030011;28;20033;-45
2023/04/21 04:45:07;;;;;;;26.42;14.10;;;6.60;99.90;;;;;;5041652;28;20118;-46
2023/04/21 04:47:36;;;;;;;22.83;14.80;;;6.70;99.90;;;;;;5034414;28;20180;-45
2023/04/21 04:50:02;;;;;;;20.52;13.65;;;6.80;99.90;;;;;;5037777;28;20057;-49
2023/04/21 04:52:28;;;;;;;21.00;13.20;;;6.90;99.90;;;;;;5042692;28;20156;-46
2023/04/21 04:54:54;;;;;;;18.73;12.68;;;6.90;99.90;;;;;;5034144;28;20111;-46
2023/04/21 04:57:20;;;;;;;21.52;13.48;;;7.70;99.90;;;;;;5033552;28;20761;-46
2023/04/21 04:59:45;;;;;;;20.75;13.18;;;7.00;99.90;;;;;;5014573;28;20045;-47
2023/04/21 05:02:11;;;;;;;21.40;12.18;;;7.10;99.90;;;;;;5017164;28;20751;-45
2023/04/21 05:04:37;;;;;;;17.42;12.85;;;7.10;99.90;;;;;;5038171;28;20041;-46
2023/04/21 05:07:06;;;;;;;22.30;13.38;;;7.40;99.90;;;;;;5034635;28;20672;-45
2023/04/21 05:09:32;;;;;;;18.08;11.82;;;7.30;99.90;;;;;;5036549;28;20075;-45
2023/04/21 05:11:58;;;;;;;19.08;12.30;;;7.70;99.90;;;;;;5032740;28;20426;-46
2023/04/21 05:14:24;;;;;;;18.48;11.40;;;8.00;99.90;;;;;;5028395;28;20055;-45
2023/04/21 05:16:49;;;;;;;18.27;11.27;;;8.20;99.90;;;;;;5030842;28;20499;-48
2023/04/21 05:19:15;;;;;;;15.23;10.65;;;8.90;99.90;;;;;;5034020;28;20037;-48
2023/04/21 05:21:41;;;;;;;16.02;10.07;;;9.80;99.90;;;;;;5030437;28;20619;-47
2023/04/21 05:24:06;;;;;;;15.80;10.25;;;10.60;99.90;;;;;;5036918;28;20515;-45
2023/04/21 05:26:32;;;;;;;13.77;9.13;;;11.20;99.90;;;;;;5028739;28;20046;-46
2023/04/21 05:28:58;;;;;;;14.75;10.23;;;11.70;99.90;;;;;;5027306;28;20096;-48
2023/04/21 05:31:24;;;;;;;17.60;9.07;;;11.90;99.90;;;;;;5033887;28;20399;-46
2023/04/21 05:33:50;;;;;;;14.52;8.25;;;11.80;99.90;;;;;;5029397;28;20037;-47
2023/04/21 05:36:16;;;;;;;12.07;8.98;;;12.20;99.90;;;;;;5032998;28;20037;-46
2023/04/21 05:38:41;;;;;;;15.52;7.90;;;12.50;99.90;;;;;;5038430;28;20120;-48
2023/04/21 05:41:07;;;;;;;14.05;7.47;;;12.70;99.90;;;;;;5038828;28;20059;-48
2023/04/21 05:43:33;;;;;;;11.70;7.50;;;13.20;99.90;;;;;;5016276;28;20076;-46
2023/04/21 05:46:07;;;;;;;12.13;7.70;;;13.70;99.30;;;;;;5027613;28;20563;-46
2023/04/21 05:48:33;;;;;;;17.65;7.68;;;13.50;98.00;;;;;;5033567;28;20045;-46
2023/04/21 05:51:09;;;;;;;14.40;7.53;;;13.80;97.70;;;;;;5030669;28;20052;-46
2023/04/21 05:53:35;;;;;;;10.93;7.07;;;14.10;97.10;;;;;;5032190;28;20053;-45
2023/04/21 05:56:01;;;;;;;14.38;7.47;;;14.40;96.40;;;;;;5034598;28;20048;-46
2023/04/21 05:58:26;;;;;;;14.60;6.95;;;14.70;95.90;;;;;;5028166;28;20092;-47
2023/04/21 06:00:52;;;;;;;12.32;7.05;;;14.40;95.30;;;;;;5028450;28;20049;-46
2023/04/21 06:03:17;;;;;;;16.13;6.63;;;14.70;94.90;;;;;;5037289;28;20033;-46
2023/04/21 06:05:43;;;;;;;11.85;6.97;;;14.60;94.30;;;;;;5034738;28;20079;-48
2023/04/21 06:08:09;;;;;;;11.70;7.25;;;13.90;94.90;;;;;;5039346;28;20025;-46
2023/04/21 06:10:35;;;;;;;13.88;7.35;;;13.80;95.60;;;;;;5041961;28;20033;-46
2023/04/21 06:13:00;;;;;;;10.57;6.80;;;14.00;94.90;;;;;;5042895;28;20059;-47
2023/04/21 06:15:26;;;;;;;13.40;7.07;;;14.30;94.50;;;;;;5038753;28;20056;-46
2023/04/21 06:17:53;;;;;;;14.38;8.10;;;14.60;94.20;;;;;;5034750;28;20096;-45
2023/04/21 06:20:19;;;;;;;10.93;6.10;;;14.90;94.00;;;;;;5033637;28;20813;-48
2023/04/21 06:22:45;;;;;;;10.27;6.05;;;14.80;93.20;;;;;;5036616;28;20040;-46
2023/04/21 06:25:11;;;;;;;9.60;6.05;;;14.80;93.00;;;;;;5033720;28;20376;-47
2023/04/21 06:27:36;;;;;;;16.17;6.50;;;14.70;93.20;;;;;;5036459;28;20083;-47
2023/04/21 06:30:02;;;;;;;11.25;6.05;;;14.80;93.30;;;;;;5030745;28;20036;-49
2023/04/21 06:32:28;;;;;;;14.80;7.28;;;14.90;93.40;;;;;;5036636;28;20047;-46
2023/04/21 06:34:53;;;;;;;11.13;6.15;;;14.80;93.10;;;;;;5029999;28;20809;-49
2023/04/21 06:37:19;;;;;;;10.63;5.72;;;14.60;93.30;;;;;;5035118;28;20041;-47
2023/04/21 06:39:45;;;;;;;11.02;6.22;;;14.20;93.60;;;;;;5028294;28;20157;-48
2023/04/21 06:42:11;;;;;;;11.50;6.13;;;14.00;94.00;;;;;;5024183;28;20045;-51
2023/04/21 06:44:37;;;;;;;14.48;6.45;;;14.10;94.30;;;;;;5034979;28;20082;-47
2023/04/21 06:47:03;;;;;;;10.57;6.15;;;14.00;94.50;;;;;;5032969;28;20437;-47
2023/04/21 06:49:28;;;;;;;14.18;6.20;;;13.90;94.60;;;;;;5031809;28;20061;-50
2023/04/21 06:51:54;;;;;;;9.88;5.80;;;13.80;94.70;;;;;;5034291;28;20045;-49
2023/04/21 06:54:20;;;;;;;12.23;5.97;;;13.90;96.40;;;;;;5038711;28;20078;-49
2023/04/21 06:56:45;;;;;;;10.68;6.57;;;14.00;95.50;;;;;;5037126;28;20055;-47
2023/04/21 06:59:11;;;;;;;12.10;6.88;;;14.10;95.30;;;;;;5038016;28;20041;-46
2023/04/21 07:01:37;;;;;;;12.88;6.03;;;14.10;95.00;;;;;;5036781;28;21012;-47
2023/04/21 07:04:04;;;;;;;11.85;6.13;;;14.20;95.30;;;;;;5035352;28;20542;-47
2023/04/21 07:06:30;;;;;;;10.85;6.35;;;14.10;95.10;;;;;;5032698;28;20686;-47
2023/04/21 07:08:56;;;;;;;11.95;5.95;;;14.10;94.90;;;;;;5034666;28;20733;-50
2023/04/21 07:11:22;;;;;;;12.00;5.57;;;14.00;95.20;;;;;;5036337;28;20136;-50
2023/04/21 07:13:48;;;;;;;13.43;6.65;;;14.00;95.40;;;;;;5034649;28;20043;-48
2023/04/21 07:16:13;;;;;;;12.43;6.07;;;14.00;95.60;;;;;;5031469;28;20049;-50
2023/04/21 07:18:40;;;;;;;11.13;6.68;;;14.20;98.40;;;;;;5017433;28;20166;-48
2023/04/21 07:21:06;;;;;;;12.77;6.53;;;14.20;99.40;;;;;;5018808;28;20052;-47
2023/04/21 07:23:32;;;;;;;11.30;6.50;;;14.30;99.60;;;;;;5032435;28;20037;-46
2023/04/21 07:25:58;;;;;;;9.93;6.13;;;13.90;97.90;;;;;;5032526;28;20666;-47
2023/04/21 07:28:24;;;;;;;15.48;6.90;;;13.80;96.70;;;;;;5031408;28;20040;-47
2023/04/21 07:30:50;;;;;;;10.57;6.22;;;13.60;96.20;;;;;;5028782;28;20037;-49
2023/04/21 07:33:15;;;;;;;13.10;6.47;;;13.60;96.30;;;;;;5032759;28;20437;-47
2023/04/21 07:35:41;;;;;;;12.57;6.93;;;13.40;96.50;;;;;;5032388;28;20407;-50
2023/04/21 07:38:07;;;;;;;12.23;6.72;;;13.20;95.70;;;;;;5040020;28;20037;-49
2023/04/21 07:40:33;;;;;;;11.88;6.65;;;13.10;95.60;;;;;;5030763;28;20546;-46
2023/04/21 07:42:59;;;;;;;13.05;6.63;;;13.10;96.00;;;;;;5030895;28;20148;-48
2023/04/21 07:45:25;;;;;;;15.20;6.93;;;12.70;96.10;;;;;;5028531;28;20208;-46
2023/04/21 07:47:51;;;;;;;11.18;6.13;;;13.10;96.30;;;;;;5031523;28;20471;-48
2023/04/21 07:50:17;;;;;;;10.13;6.47;;;13.50;96.50;;;;;;5030418;28;20060;-47
2023/04/21 07:52:42;;;;;;;8.65;6.65;;;13.40;96.50;;;;;;5035789;28;20395;-46
2023/04/21 07:55:08;;;;;;;12.73;5.95;;;13.70;96.30;;;;;;5035798;28;20041;-47
2023/04/21 07:57:37;;;;;;;11.27;6.45;;;13.80;96.00;;;;;;5037545;28;20068;-48
2023/04/21 08:00:04;;;;;;;13.75;6.85;;;14.00;95.90;;;;;;5032534;28;20107;-46
2023/04/21 08:02:30;;;;;;;17.25;6.82;;;14.10;95.80;;;;;;5036790;28;20044;-47
2023/04/21 08:04:56;;;;;;;12.45;6.63;;;14.20;96.20;;;;;;5036047;28;20467;-44
2023/04/21 08:07:22;;;;;;;11.35;6.07;;;14.50;94.50;;;;;;5015604;28;20035;-48
2023/04/21 08:09:47;;;;;;;10.55;5.78;;;14.50;95.00;;;;;;5035619;28;20487;-47
2023/04/21 08:12:13;;;;;;;14.13;6.13;;;14.70;94.90;;;;;;5030408;28;20145;-46
2023/04/21 08:14:39;;;;;;;11.25;6.13;;;15.00;94.70;;;;;;5025717;28;20045;-46
2023/04/21 08:17:05;;;;;;;12.80;5.68;;;15.30;94.20;;;;;;5035288;28;20731;-45
2023/04/21 08:19:30;;;;;;;14.05;6.28;;;15.70;93.70;;;;;;5008398;28;20148;-48
2023/04/21 08:21:57;;;;;;;10.00;5.78;;;16.00;93.00;;;;;;5029071;28;20045;-48
2023/04/21 08:24:23;;;;;;;10.98;6.07;;;16.20;92.00;;;;;;5025569;28;20099;-48
2023/04/21 08:26:56;;;;;;;12.82;5.45;;;16.30;91.50;;;;;;5027810;28;20045;-49
2023/04/21 08:29:22;;;;;;;11.55;5.85;;;16.60;90.90;;;;;;5028946;28;20040;-47
2023/04/21 08:31:48;;;;;;;10.70;5.97;;;16.70;90.90;;;;;;5033887;28;20520;-50
2023/04/21 08:34:13;;;;;;;11.13;6.15;;;16.80;90.80;;;;;;5039829;28;20037;-48
2023/04/21 08:36:41;;;;;;;11.65;6.40;;;16.60;90.30;;;;;;5028845;28;20054;-49
2023/04/21 08:39:07;;;;;;;9.20;6.03;;;16.50;90.20;;;;;;5005685;28;20129;-47
2023/04/21 08:41:33;;;;;;;9.52;5.25;;;16.30;90.50;;;;;;5029624;28;20402;-49
2023/04/21 08:43:59;;;;;;;13.35;5.97;;;16.50;91.00;;;;;;5024829;28;20359;-50
2023/04/21 08:46:27;;;;;;;10.40;6.30;;;16.70;90.80;;;;;;5028379;28;20099;-50
2023/04/21 08:48:52;;;;;;;13.20;5.97;;;16.70;90.60;;;;;;5031981;28;20056;-50
2023/04/21 08:51:22;;;;;;;11.35;5.75;;;16.70;90.30;;;;;;5024060;28;20060;-49
2023/04/21 08:53:48;;;;;;;9.25;5.75;;;16.80;90.80;;;;;;5036413;28;20506;-49
2023/04/21 08:56:14;;;;;;;14.25;6.05;;;16.90;90.60;;;;;;5023586;28;20037;-45
2023/04/21 08:58:40;;;;;;;10.60;5.97;;;17.10;93.20;;;;;;5037544;28;20726;-49
2023/04/21 09:01:06;;;;;;;14.07;6.88;;;17.40;93.60;;;;;;5017296;28;20041;-49
2023/04/21 09:03:32;;;;;;;10.52;5.82;;;17.50;91.00;;;;;;5028902;28;20083;-48
2023/04/21 09:06:05;;;;;;;10.20;6.07;;;17.80;90.10;;;;;;5031780;28;20040;-48
2023/04/21 09:08:31;;;;;;;12.35;5.97;;;18.10;88.30;;;;;;5030736;28;20056;-51
2023/04/21 09:11:00;;;;;;;14.25;5.55;;;18.40;87.90;;;;;;5024243;28;20107;-47
2023/04/21 09:13:34;;;;;;;11.85;5.95;;;18.60;86.70;;;;;;5033590;28;20076;-49
2023/04/21 09:16:02;;;;;;;9.45;4.95;;;18.80;84.70;;;;;;5032774;28;20110;-46
2023/04/21 09:18:35;;;;;;;13.30;6.05;;;19.10;84.80;;;;;;5029265;28;20052;-48
2023/04/21 09:21:05;;;;;;;11.18;5.63;;;19.20;83.70;;;;;;5036696;28;20049;-47
2023/04/21 09:23:31;;;;;;;11.18;5.47;;;19.40;81.20;;;;;;5031577;28;20091;-48
2023/04/21 09:25:56;;;;;;;13.35;6.03;;;19.60;82.30;;;;;;5034863;28;20045;-46
2023/04/21 09:28:22;;;;;;;14.05;5.95;;;19.40;80.70;;;;;;5028197;28;20789;-47
2023/04/21 09:30:54;;;;;;;13.93;5.63;;;18.90;80.00;;;;;;5031500;28;20052;-45
2023/04/21 09:33:20;;;;;;;;;;;18.40;79.80;;;;;;5036837;28;20045;-49
2023/04/21 09:35:46;;;;;;;11.68;6.20;;;17.90;79.90;;;;;;5027938;28;19951;-47
2023/04/21 09:38:15;;;;;;;10.10;5.65;;;17.50;83.30;;;;;;5010393;28;20498;-48
2023/04/21 09:40:41;;;;;;;8.68;5.80;;;17.20;84.00;;;;;;5033705;28;20167;-49
2023/04/21 09:43:07;;;;;;;14.52;5.93;;;17.00;83.90;;;;;;5030102;28;20555;-47
2023/04/21 09:45:33;;;;;;;13.70;5.90;;;16.90;84.90;;;;;;5031656;28;20627;-48
2023/04/21 09:48:03;;;;;;;14.48;6.40;;;16.80;84.50;;;;;;5032570;28;20033;-48
2023/04/21 09:50:29;;;;;;;16.52;6.07;;;16.90;84.60;;;;;;5014516;28;20062;-47
2023/04/21 09:52:56;;;;;;;12.90;6.43;;;16.90;85.00;;;;;;5035419;28;20046;-47
2023/04/21 09:55:29;;;;;;;12.27;6.20;;;17.10;85.20;;;;;;5034789;28;20049;-46
2023/04/21 09:58:01;;;;;;;10.35;6.22;;;17.20;84.00;;;;;;5038256;28;20579;-48
2023/04/21 10:00:27;;;;;;;15.00;6.53;;;17.60;83.70;;;;;;5038793;28;20063;-47
2023/04/21 10:02:56;;;;;;;11.55;5.95;;;17.70;83.40;;;;;;5042240;28;20083;-50
2023/04/21 10:05:22;;;;;;;8.77;5.82;;;17.60;83.10;;;;;;5006962;28;20128;-56
2023/04/21 10:07:49;;;;;;;11.68;6.53;;;17.70;82.90;;;;;;5005809;28;20037;-52
2023/04/21 10:10:25;;;;;;;11.40;6.10;;;17.90;83.90;;;;;;5014505;28;20037;-48
2023/04/21 10:12:52;;;;;;;11.73;5.82;;;17.90;81.70;;;;;;5019535;28;20071;-58
2023/04/21 10:15:37;;;;;;;13.27;6.15;;;17.80;82.00;;;;;;5018732;28;20052;-51
2023/04/21 10:18:21;;;;;;;10.98;7.07;;;17.80;80.00;;;;;;4995108;28;20459;-43
2023/04/21 10:20:54;;;;;;;12.73;6.15;;;17.80;80.60;;;;;;5016626;28;20124;-48
2023/04/21 10:23:30;;;;;;;8.95;5.55;;;17.90;79.80;;;;;;5017989;28;20084;-45
2023/04/21 10:26:17;;;;;;;12.68;6.30;;;18.10;80.50;;;;;;5018658;28;20895;-42
2023/04/21 10:28:56;;;;;;;12.88;5.85;;;18.20;79.10;;;;;;5018055;28;20040;-54
2023/04/21 10:31:29;;;;;;;9.18;5.70;;;18.40;80.30;;;;;;5000689;28;20132;-55
2023/04/21 10:34:12;;;;;;;11.82;6.57;;;18.60;78.70;;;;;;5013691;28;20048;-49
2023/04/21 10:36:42;;;;;;;12.23;5.82;;;18.90;77.60;;;;;;5003749;28;20039;-50
2023/04/21 10:39:11;;;;;;;11.00;5.97;;;19.10;78.30;;;;;;4998409;28;20493;-47
2023/04/21 10:41:38;;;;;;;11.35;5.78;;;19.30;77.10;;;;;;5014864;28;20056;-50
2023/04/21 10:44:06;;;;;;;9.93;5.43;;;19.40;76.20;;;;;;5014622;28;20515;-49
2023/04/21 10:46:44;;;;;;;10.15;4.75;;;19.40;75.00;;;;;;5008341;28;20703;-52
2023/04/21 10:49:11;;;;;;;9.88;4.75;;;19.20;75.00;;;;;;5013647;28;20099;-55
2023/04/21 10:51:59;;;;;;;11.23;5.43;;;19.00;75.10;;;;;;5014624;28;20989;-52
2023/04/21 10:54:26;;;;;;;10.05;5.00;;;18.80;74.70;;;;;;5016664;28;20045;-54
2023/04/21 10:56:53;;;;;;;10.55;5.20;;;18.60;74.60;;;;;;5016325;28;20800;-54
2023/04/21 10:59:20;;;;;;;7.80;4.70;;;18.60;75.20;;;;;;5000816;28;20033;-56
2023/04/21 11:01:45;;;;;;;9.10;4.70;;;18.60;76.50;;;;;;5016522;28;20705;-54
2023/04/21 11:04:19;;;;;;;12.48;6.38;;;18.70;76.20;;;;;;5003592;28;20041;-51
2023/04/21 11:07:07;;;;;;;8.02;4.10;;;18.70;76.70;;;;;;5017717;28;20041;-50
2023/04/21 11:09:34;;;;;;;9.38;4.30;;;18.80;74.20;;;;;;5012939;28;20029;-52
2023/04/21 11:12:03;;;;;;;5.25;3.22;;;18.80;73.90;;;;;;5015802;28;20045;-56
2023/04/21 11:14:29;;;;;;;9.80;3.95;;;18.80;74.00;;;;;;5020843;28;20094;-52
2023/04/21 11:16:55;;;;;;;11.00;4.50;;;17.70;74.10;;;;;;5021567;28;20029;-55
2023/04/21 11:19:27;;;;;;;8.95;3.75;;;18.90;74.50;;;;;;5011012;28;20544;-58
2023/04/21 11:21:56;;;;;;;;;;;19.00;74.10;;;;;;5010926;28;20079;-62
2023/04/21 11:24:21;;;;;;;9.63;3.25;;;19.00;69.50;;;;;;5013298;28;19917;-56
2023/04/21 11:26:47;;;;;;;7.30;2.90;;;19.00;71.60;;;;;;5013734;28;20039;-57
2023/04/21 11:29:14;;;;;;;9.50;3.13;;;19.00;71.20;;;;;;4998564;28;20091;-56
2023/04/21 11:31:43;;;;;;;9.32;2.83;;;18.90;70.70;;;;;;5001694;28;20056;-53
2023/04/21 11:34:09;;;;;;;11.20;2.78;;;18.90;70.50;;;;;;4994881;28;20052;-57
2023/04/21 11:36:39;;;;;;;8.18;2.72;;;18.90;70.10;;;;;;5015261;28;20475;-52
2023/04/21 11:39:08;;;;;;;11.15;3.45;;;18.90;68.90;;;;;;5018099;28;20095;-59
2023/04/21 11:41:42;;;;;;;6.07;2.83;;;18.90;69.40;;;;;;5015955;28;20052;-60
2023/04/21 11:44:09;;;;;;;10.88;3.10;;;18.70;68.10;;;;;;5002438;28;20041;-48
2023/04/21 11:46:43;;;;;;;7.22;2.85;;;18.60;69.00;;;;;;5006574;28;20042;-52
2023/04/21 11:49:14;;;;;;;9.70;3.28;;;18.60;68.50;;;;;;4989412;28;21741;-60
2023/04/21 11:51:42;;;;;;;5.60;2.22;;;18.70;69.60;;;;;;4991302;28;20465;-58
2023/04/21 11:54:10;;;;;;;7.57;2.72;;;18.70;69.10;;;;;;5011118;28;20029;-58
2023/04/21 11:56:45;;;;;;;5.50;2.88;;;18.60;68.10;;;;;;4976177;28;20590;-59
2023/04/21 11:59:13;;;;;;;8.57;2.92;;;18.40;68.60;;;;;;5013845;28;20094;-61
2023/04/21 12:01:47;;;;;;;7.53;2.83;;;18.40;69.10;;;;;;4977639;28;20929;-59
2023/04/21 12:04:21;;;;;;;7.80;2.90;;;18.50;69.80;;;;;;4959337;28;20056;-62
2023/04/21 12:06:58;;;;;;;6.50;2.63;;;18.70;69.10;;;;;;4990481;28;20136;-60
2023/04/21 12:09:24;;;;;;;11.60;2.85;;;19.00;69.90;;;;;;4978897;28;20132;-58
2023/04/21 12:11:56;;;;;;;10.98;3.13;;;19.10;68.20;;;;;;4991634;28;20055;-58
2023/04/21 12:14:23;;;;;;;9.63;3.33;;;19.20;68.70;;;;;;4994421;28;20044;-61
2023/04/21 12:16:54;;;;;;;9.95;3.22;;;19.10;67.50;;;;;;5012737;28;20045;-59
2023/04/21 12:19:40;;;;;;;8.52;3.45;;;19.10;67.80;;;;;;4965691;28;20905;-58
2023/04/21 12:22:13;;;;;;;6.43;2.90;;;18.90;66.00;;;;;;5012964;28;20047;-58
2023/04/21 12:24:40;;;;;;;8.57;2.92;;;18.80;66.90;;;;;;5012724;28;20733;-58
2023/04/21 12:27:07;;;;;;;6.55;2.88;;;18.80;67.00;;;;;;5013518;28;20048;-58
2023/04/21 12:29:34;;;;;;;9.82;3.30;;;18.90;67.30;;;;;;5016647;28;20033;-55
2023/04/21 12:32:00;;;;;;;9.75;2.85;;;19.10;67.40;;;;;;4995999;28;20048;-58
2023/04/21 12:34:26;;;;;;;7.95;2.80;;;19.20;67.10;;;;;;5016062;28;20343;-58
2023/04/21 12:36:52;;;;;;;5.35;2.47;;;19.40;67.80;;;;;;5002364;28;20345;-56
2023/04/21 12:39:18;;;;;;;5.60;2.72;;;19.40;66.70;;;;;;5018285;28;20043;-53